Terminal Aerodrome Forecast
Issued by NWS Detroit/Pontiac, MI

Home | Current Version | Previous Version | Text Only | Print | Product List | Glossary On
Versions: 1 2 3 4 5 6 7 8 9 10 11 12 13 14 15 16
000
FTUS43 KDTX 271120
TAFFNT
TAF
KFNT 271120Z 2712/2812 24005KT P6SM SKC
     FM271700 26008KT P6SM SCT060 SCT080 PROB30 2721/2724 5SM TSRA
      SCT035 BKN050CB
     FM280000 36005KT P6SM SCT060 BKN150=

USA.gov is the U.S. government's official web portal to all federal, state and local government web resources and services.